sensor_id;sensor_type;location;lat;lon;timestamp;temperature;humidity
10278;DHT22;5184;51.376;7.148;2023-01-06T00:02:03;10.10;99.90
10278;DHT22;5184;51.376;7.148;2023-01-06T00:04:30;10.10;99.90
10278;DHT22;5184;51.376;7.148;2023-01-06T00:06:57;10.10;99.90
10278;DHT22;5184;51.376;7.148;2023-01-06T00:09:24;10.00;99.90
10278;DHT22;5184;51.376;7.148;2023-01-06T00:11:51;10.00;99.90
10278;DHT22;5184;51.376;7.148;2023-01-06T00:14:17;10.00;99.90
10278;DHT22;5184;51.376;7.148;2023-01-06T00:16:44;10.00;99.90
10278;DHT22;5184;51.376;7.148;2023-01-06T00:19:12;10.00;99.90
10278;DHT22;5184;51.376;7.148;2023-01-06T00:21:38;10.10;99.90
10278;DHT22;5184;51.376;7.148;2023-01-06T00:24:05;10.00;99.90
10278;DHT22;5184;51.376;7.148;2023-01-06T00:26:32;10.00;99.90
10278;DHT22;5184;51.376;7.148;2023-01-06T00:28:59;10.00;99.90
10278;DHT22;5184;51.376;7.148;2023-01-06T00:31:25;10.00;99.90
10278;DHT22;5184;51.376;7.148;2023-01-06T00:33:54;10.00;99.90
10278;DHT22;5184;51.376;7.148;2023-01-06T00:36:20;10.00;99.90
10278;DHT22;5184;51.376;7.148;2023-01-06T00:38:47;10.00;99.90
10278;DHT22;5184;51.376;7.148;2023-01-06T00:41:14;10.10;99.90
10278;DHT22;5184;51.376;7.148;2023-01-06T00:43:46;10.00;99.90
10278;DHT22;5184;51.376;7.148;2023-01-06T00:46:13;10.00;99.90
10278;DHT22;5184;51.376;7.148;2023-01-06T00:48:40;10.00;99.90
10278;DHT22;5184;51.376;7.148;2023-01-06T00:51:07;10.00;99.90
10278;DHT22;5184;51.376;7.148;2023-01-06T00:53:34;10.10;99.90
10278;DHT22;5184;51.376;7.148;2023-01-06T00:56:02;10.00;99.90
10278;DHT22;5184;51.376;7.148;2023-01-06T00:58:30;10.10;99.90
10278;DHT22;5184;51.376;7.148;2023-01-06T01:00:56;10.00;99.90
10278;DHT22;5184;51.376;7.148;2023-01-06T01:03:22;10.00;99.90
10278;DHT22;5184;51.376;7.148;2023-01-06T01:05:50;10.00;99.90
10278;DHT22;5184;51.376;7.148;2023-01-06T01:08:16;11.50;99.90
10278;DHT22;5184;51.376;7.148;2023-01-06T01:10:44;10.10;99.90
10278;DHT22;5184;51.376;7.148;2023-01-06T01:13:11;10.00;99.90
10278;DHT22;5184;51.376;7.148;2023-01-06T01:15:39;10.00;99.90
10278;DHT22;5184;51.376;7.148;2023-01-06T01:18:05;10.00;99.90
10278;DHT22;5184;51.376;7.148;2023-01-06T01:20:32;10.00;99.90
10278;DHT22;5184;51.376;7.148;2023-01-06T01:22:59;10.00;99.90
10278;DHT22;5184;51.376;7.148;2023-01-06T01:25:26;10.00;99.90
10278;DHT22;5184;51.376;7.148;2023-01-06T01:27:54;10.00;99.90
10278;DHT22;5184;51.376;7.148;2023-01-06T01:30:21;10.00;99.90
10278;DHT22;5184;51.376;7.148;2023-01-06T01:32:48;10.00;99.90
10278;DHT22;5184;51.376;7.148;2023-01-06T01:35:14;10.00;99.90
10278;DHT22;5184;51.376;7.148;2023-01-06T01:37:41;10.10;99.90
10278;DHT22;5184;51.376;7.148;2023-01-06T01:40:09;10.00;94.10
10278;DHT22;5184;51.376;7.148;2023-01-06T01:42:36;10.00;94.50
10278;DHT22;5184;51.376;7.148;2023-01-06T01:45:05;10.00;99.90
10278;DHT22;5184;51.376;7.148;2023-01-06T01:47:46;10.00;98.20
10278;DHT22;5184;51.376;7.148;2023-01-06T01:52:46;10.00;76.00
10278;DHT22;5184;51.376;7.148;2023-01-06T01:55:12;10.00;76.60
10278;DHT22;5184;51.376;7.148;2023-01-06T01:57:42;10.00;82.90
10278;DHT22;5184;51.376;7.148;2023-01-06T02:00:06;10.00;81.10
10278;DHT22;5184;51.376;7.148;2023-01-06T02:02:34;10.00;74.80
10278;DHT22;5184;51.376;7.148;2023-01-06T02:05:01;10.00;92.80
10278;DHT22;5184;51.376;7.148;2023-01-06T02:07:28;10.60;94.20
10278;DHT22;5184;51.376;7.148;2023-01-06T02:10:05;10.00;74.00
10278;DHT22;5184;51.376;7.148;2023-01-06T02:12:28;10.00;58.80
10278;DHT22;5184;51.376;7.148;2023-01-06T02:14:56;10.00;36.10
10278;DHT22;5184;51.376;7.148;2023-01-06T02:18:01;10.00;36.30
10278;DHT22;5184;51.376;7.148;2023-01-06T02:20:16;10.00;1.00
10278;DHT22;5184;51.376;7.148;2023-01-06T02:23:21;10.00;1.00
10278;DHT22;5184;51.376;7.148;2023-01-06T02:26:10;10.00;1.00
10278;DHT22;5184;51.376;7.148;2023-01-06T02:28:48;10.00;1.00
10278;DHT22;5184;51.376;7.148;2023-01-06T02:36:40;10.00;1.00
10278;DHT22;5184;51.376;7.148;2023-01-06T02:39:26;10.00;1.00
10278;DHT22;5184;51.376;7.148;2023-01-06T02:41:52;10.00;1.00
10278;DHT22;5184;51.376;7.148;2023-01-06T02:44:24;10.00;1.00
10278;DHT22;5184;51.376;7.148;2023-01-06T02:47:02;10.00;1.00
10278;DHT22;5184;51.376;7.148;2023-01-06T02:49:39;10.10;1.00
10278;DHT22;5184;51.376;7.148;2023-01-06T02:52:19;10.00;1.00
10278;DHT22;5184;51.376;7.148;2023-01-06T02:54:53;10.00;1.00
10278;DHT22;5184;51.376;7.148;2023-01-06T02:57:30;10.70;1.00
10278;DHT22;5184;51.376;7.148;2023-01-06T02:59:58;10.00;1.00
10278;DHT22;5184;51.376;7.148;2023-01-06T03:02:22;10.10;1.00
10278;DHT22;5184;51.376;7.148;2023-01-06T03:04:48;10.00;99.90
10278;DHT22;5184;51.376;7.148;2023-01-06T03:07:15;10.10;99.90
10278;DHT22;5184;51.376;7.148;2023-01-06T03:09:41;10.00;99.90
10278;DHT22;5184;51.376;7.148;2023-01-06T03:12:28;10.10;99.90
10278;DHT22;5184;51.376;7.148;2023-01-06T03:14:53;10.00;99.90
10278;DHT22;5184;51.376;7.148;2023-01-06T03:17:19;10.10;99.90
10278;DHT22;5184;51.376;7.148;2023-01-06T03:19:45;10.40;99.90
10278;DHT22;5184;51.376;7.148;2023-01-06T03:22:12;10.00;99.90
10278;DHT22;5184;51.376;7.148;2023-01-06T03:24:39;10.00;99.90
10278;DHT22;5184;51.376;7.148;2023-01-06T03:27:06;10.00;1.00
10278;DHT22;5184;51.376;7.148;2023-01-06T03:29:33;9.90;1.00
10278;DHT22;5184;51.376;7.148;2023-01-06T03:32:08;10.00;1.00
10278;DHT22;5184;51.376;7.148;2023-01-06T03:37:24;10.00;1.00
10278;DHT22;5184;51.376;7.148;2023-01-06T03:39:59;9.90;1.00
10278;DHT22;5184;51.376;7.148;2023-01-06T03:45:13;10.00;99.90
10278;DHT22;5184;51.376;7.148;2023-01-06T03:50:27;9.90;1.00
10278;DHT22;5184;51.376;7.148;2023-01-06T03:53:10;9.90;1.00
10278;DHT22;5184;51.376;7.148;2023-01-06T03:55:30;10.00;1.00
10278;DHT22;5184;51.376;7.148;2023-01-06T03:57:56;10.00;99.90
10278;DHT22;5184;51.376;7.148;2023-01-06T04:00:23;10.00;99.90
10278;DHT22;5184;51.376;7.148;2023-01-06T04:02:50;10.00;99.90
10278;DHT22;5184;51.376;7.148;2023-01-06T04:05:19;10.00;99.90
10278;DHT22;5184;51.376;7.148;2023-01-06T04:07:44;10.00;99.90
10278;DHT22;5184;51.376;7.148;2023-01-06T04:10:11;9.00;99.90
10278;DHT22;5184;51.376;7.148;2023-01-06T04:12:38;10.00;99.90
10278;DHT22;5184;51.376;7.148;2023-01-06T04:15:05;10.00;1.00
10278;DHT22;5184;51.376;7.148;2023-01-06T04:17:31;10.00;1.00
10278;DHT22;5184;51.376;7.148;2023-01-06T04:19:58;10.00;1.00
10278;DHT22;5184;51.376;7.148;2023-01-06T04:22:24;10.00;99.90
10278;DHT22;5184;51.376;7.148;2023-01-06T04:24:51;9.90;99.90
10278;DHT22;5184;51.376;7.148;2023-01-06T04:27:18;10.00;99.90
10278;DHT22;5184;51.376;7.148;2023-01-06T04:29:44;10.00;99.90
10278;DHT22;5184;51.376;7.148;2023-01-06T04:32:12;10.00;1.00
10278;DHT22;5184;51.376;7.148;2023-01-06T04:34:39;10.00;1.00
10278;DHT22;5184;51.376;7.148;2023-01-06T04:37:07;10.00;1.00
10278;DHT22;5184;51.376;7.148;2023-01-06T04:39:35;10.00;1.00
10278;DHT22;5184;51.376;7.148;2023-01-06T04:42:02;10.00;56.70
10278;DHT22;5184;51.376;7.148;2023-01-06T04:44:29;10.00;71.80
10278;DHT22;5184;51.376;7.148;2023-01-06T04:46:56;9.90;52.20
10278;DHT22;5184;51.376;7.148;2023-01-06T04:49:23;9.90;99.90
10278;DHT22;5184;51.376;7.148;2023-01-06T04:51:51;9.90;99.90
10278;DHT22;5184;51.376;7.148;2023-01-06T04:54:17;9.90;99.90
10278;DHT22;5184;51.376;7.148;2023-01-06T04:56:44;9.90;1.00
10278;DHT22;5184;51.376;7.148;2023-01-06T04:59:10;10.00;99.90
10278;DHT22;5184;51.376;7.148;2023-01-06T05:01:38;10.00;99.90
10278;DHT22;5184;51.376;7.148;2023-01-06T05:04:05;10.00;99.90
10278;DHT22;5184;51.376;7.148;2023-01-06T05:06:33;10.00;99.90
10278;DHT22;5184;51.376;7.148;2023-01-06T05:08:59;10.00;99.90
10278;DHT22;5184;51.376;7.148;2023-01-06T05:11:26;10.00;1.00
10278;DHT22;5184;51.376;7.148;2023-01-06T05:13:52;10.00;99.90
10278;DHT22;5184;51.376;7.148;2023-01-06T05:16:22;10.00;12.40
10278;DHT22;5184;51.376;7.148;2023-01-06T05:18:46;10.00;1.00
10278;DHT22;5184;51.376;7.148;2023-01-06T05:21:13;10.00;1.00
10278;DHT22;5184;51.376;7.148;2023-01-06T05:23:40;10.00;1.00
10278;DHT22;5184;51.376;7.148;2023-01-06T05:26:06;10.00;1.00
10278;DHT22;5184;51.376;7.148;2023-01-06T05:28:33;10.00;99.90
10278;DHT22;5184;51.376;7.148;2023-01-06T05:31:02;10.00;1.00
10278;DHT22;5184;51.376;7.148;2023-01-06T05:33:28;10.00;1.00
10278;DHT22;5184;51.376;7.148;2023-01-06T05:36:00;10.00;99.90
10278;DHT22;5184;51.376;7.148;2023-01-06T05:38:26;10.00;99.90
10278;DHT22;5184;51.376;7.148;2023-01-06T05:40:53;10.00;1.00
10278;DHT22;5184;51.376;7.148;2023-01-06T05:43:19;10.00;1.00
10278;DHT22;5184;51.376;7.148;2023-01-06T05:45:46;10.00;1.00
10278;DHT22;5184;51.376;7.148;2023-01-06T05:48:13;10.00;12.90
10278;DHT22;5184;51.376;7.148;2023-01-06T05:50:40;10.00;1.00
10278;DHT22;5184;51.376;7.148;2023-01-06T05:53:07;10.00;1.00
10278;DHT22;5184;51.376;7.148;2023-01-06T05:55:34;10.00;1.00
10278;DHT22;5184;51.376;7.148;2023-01-06T05:58:00;9.90;1.00
10278;DHT22;5184;51.376;7.148;2023-01-06T06:00:28;10.00;99.90
10278;DHT22;5184;51.376;7.148;2023-01-06T06:02:54;10.00;99.90
10278;DHT22;5184;51.376;7.148;2023-01-06T06:05:21;10.00;99.90
10278;DHT22;5184;51.376;7.148;2023-01-06T06:07:52;10.00;99.90
10278;DHT22;5184;51.376;7.148;2023-01-06T06:10:18;10.00;99.90
10278;DHT22;5184;51.376;7.148;2023-01-06T06:12:44;10.00;99.90
10278;DHT22;5184;51.376;7.148;2023-01-06T06:15:11;10.00;99.90
10278;DHT22;5184;51.376;7.148;2023-01-06T06:17:37;10.00;99.90
10278;DHT22;5184;51.376;7.148;2023-01-06T06:20:05;10.00;99.90
10278;DHT22;5184;51.376;7.148;2023-01-06T06:22:32;10.00;99.90
10278;DHT22;5184;51.376;7.148;2023-01-06T06:24:58;10.00;99.90
10278;DHT22;5184;51.376;7.148;2023-01-06T06:27:26;10.00;96.60
10278;DHT22;5184;51.376;7.148;2023-01-06T06:29:52;10.00;99.90
10278;DHT22;5184;51.376;7.148;2023-01-06T06:32:19;10.00;99.90
10278;DHT22;5184;51.376;7.148;2023-01-06T06:34:46;9.90;99.90
10278;DHT22;5184;51.376;7.148;2023-01-06T06:37:12;9.90;99.90
10278;DHT22;5184;51.376;7.148;2023-01-06T06:39:39;10.00;99.90
10278;DHT22;5184;51.376;7.148;2023-01-06T06:42:05;9.90;1.00
10278;DHT22;5184;51.376;7.148;2023-01-06T06:44:32;9.90;1.00
10278;DHT22;5184;51.376;7.148;2023-01-06T06:46:59;10.00;1.00
10278;DHT22;5184;51.376;7.148;2023-01-06T06:49:25;10.00;1.00
10278;DHT22;5184;51.376;7.148;2023-01-06T06:51:52;8.10;99.90
10278;DHT22;5184;51.376;7.148;2023-01-06T06:54:18;10.00;1.00
10278;DHT22;5184;51.376;7.148;2023-01-06T06:56:45;10.00;1.00
10278;DHT22;5184;51.376;7.148;2023-01-06T06:59:12;10.00;1.00
10278;DHT22;5184;51.376;7.148;2023-01-06T07:01:40;9.90;1.00
10278;DHT22;5184;51.376;7.148;2023-01-06T07:04:07;10.00;13.70
10278;DHT22;5184;51.376;7.148;2023-01-06T07:06:34;9.90;99.90
10278;DHT22;5184;51.376;7.148;2023-01-06T07:09:01;9.90;99.90
10278;DHT22;5184;51.376;7.148;2023-01-06T07:11:28;10.00;99.90
10278;DHT22;5184;51.376;7.148;2023-01-06T07:13:55;9.90;99.90
10278;DHT22;5184;51.376;7.148;2023-01-06T07:16:22;10.00;92.30
10278;DHT22;5184;51.376;7.148;2023-01-06T07:18:49;9.90;93.90
10278;DHT22;5184;51.376;7.148;2023-01-06T07:21:16;10.00;14.50
10278;DHT22;5184;51.376;7.148;2023-01-06T07:23:42;9.90;12.30
10278;DHT22;5184;51.376;7.148;2023-01-06T07:26:09;9.90;96.80
10278;DHT22;5184;51.376;7.148;2023-01-06T07:28:36;9.90;99.90
10278;DHT22;5184;51.376;7.148;2023-01-06T07:31:03;9.90;99.90
10278;DHT22;5184;51.376;7.148;2023-01-06T07:33:30;9.90;99.90
10278;DHT22;5184;51.376;7.148;2023-01-06T07:35:58;9.90;1.00
10278;DHT22;5184;51.376;7.148;2023-01-06T07:38:25;10.00;1.00
10278;DHT22;5184;51.376;7.148;2023-01-06T07:40:57;10.00;1.00
10278;DHT22;5184;51.376;7.148;2023-01-06T07:43:20;10.10;99.90
10278;DHT22;5184;51.376;7.148;2023-01-06T07:45:46;10.00;99.90
10278;DHT22;5184;51.376;7.148;2023-01-06T07:48:13;10.00;99.90
10278;DHT22;5184;51.376;7.148;2023-01-06T07:50:39;10.00;99.90
10278;DHT22;5184;51.376;7.148;2023-01-06T07:53:07;8.50;99.90
10278;DHT22;5184;51.376;7.148;2023-01-06T07:55:33;10.10;99.90
10278;DHT22;5184;51.376;7.148;2023-01-06T07:58:03;10.10;99.90
10278;DHT22;5184;51.376;7.148;2023-01-06T08:00:27;10.20;99.90
10278;DHT22;5184;51.376;7.148;2023-01-06T08:02:55;10.20;1.00
10278;DHT22;5184;51.376;7.148;2023-01-06T08:05:21;10.20;1.00
10278;DHT22;5184;51.376;7.148;2023-01-06T08:07:48;10.20;26.80
10278;DHT22;5184;51.376;7.148;2023-01-06T08:10:15;10.20;1.00
10278;DHT22;5184;51.376;7.148;2023-01-06T08:12:41;10.20;1.00
10278;DHT22;5184;51.376;7.148;2023-01-06T08:15:08;10.30;1.00
10278;DHT22;5184;51.376;7.148;2023-01-06T08:17:34;10.30;1.00
10278;DHT22;5184;51.376;7.148;2023-01-06T08:20:01;10.30;1.00
10278;DHT22;5184;51.376;7.148;2023-01-06T08:22:28;10.20;62.80
10278;DHT22;5184;51.376;7.148;2023-01-06T08:24:55;10.20;1.00
10278;DHT22;5184;51.376;7.148;2023-01-06T08:27:23;10.20;1.00
10278;DHT22;5184;51.376;7.148;2023-01-06T08:29:49;10.30;1.00
10278;DHT22;5184;51.376;7.148;2023-01-06T08:32:16;10.20;1.00
10278;DHT22;5184;51.376;7.148;2023-01-06T08:34:49;10.10;1.00
10278;DHT22;5184;51.376;7.148;2023-01-06T08:37:15;10.10;1.00
10278;DHT22;5184;51.376;7.148;2023-01-06T08:39:43;10.10;99.90
10278;DHT22;5184;51.376;7.148;2023-01-06T08:42:10;10.10;99.90
10278;DHT22;5184;51.376;7.148;2023-01-06T08:44:37;10.20;99.90
10278;DHT22;5184;51.376;7.148;2023-01-06T08:47:05;10.20;99.90
10278;DHT22;5184;51.376;7.148;2023-01-06T08:49:31;10.20;99.90
10278;DHT22;5184;51.376;7.148;2023-01-06T08:51:58;12.00;1.00
10278;DHT22;5184;51.376;7.148;2023-01-06T08:54:26;10.20;1.00
10278;DHT22;5184;51.376;7.148;2023-01-06T08:56:51;10.20;99.90
10278;DHT22;5184;51.376;7.148;2023-01-06T08:59:18;9.00;81.90
10278;DHT22;5184;51.376;7.148;2023-01-06T09:01:44;10.20;99.90
10278;DHT22;5184;51.376;7.148;2023-01-06T09:04:11;10.20;99.90
10278;DHT22;5184;51.376;7.148;2023-01-06T09:06:40;10.30;1.00
10278;DHT22;5184;51.376;7.148;2023-01-06T09:09:06;10.30;99.90
10278;DHT22;5184;51.376;7.148;2023-01-06T09:11:32;10.30;99.90
10278;DHT22;5184;51.376;7.148;2023-01-06T09:13:59;10.30;99.90
10278;DHT22;5184;51.376;7.148;2023-01-06T09:16:25;10.30;99.90
10278;DHT22;5184;51.376;7.148;2023-01-06T09:18:52;10.30;99.90
10278;DHT22;5184;51.376;7.148;2023-01-06T09:21:20;10.20;99.90
10278;DHT22;5184;51.376;7.148;2023-01-06T09:23:46;10.00;1.00
10278;DHT22;5184;51.376;7.148;2023-01-06T09:26:14;10.10;1.00
10278;DHT22;5184;51.376;7.148;2023-01-06T09:28:40;10.00;1.00
10278;DHT22;5184;51.376;7.148;2023-01-06T09:31:07;10.10;1.00
10278;DHT22;5184;51.376;7.148;2023-01-06T09:33:33;10.00;1.00
10278;DHT22;5184;51.376;7.148;2023-01-06T09:36:00;10.00;15.80
10278;DHT22;5184;51.376;7.148;2023-01-06T09:38:27;10.00;99.90
10278;DHT22;5184;51.376;7.148;2023-01-06T09:41:03;9.90;99.90
10278;DHT22;5184;51.376;7.148;2023-01-06T09:46:09;10.00;99.90
10278;DHT22;5184;51.376;7.148;2023-01-06T09:48:38;10.00;99.90
10278;DHT22;5184;51.376;7.148;2023-01-06T09:51:03;9.90;99.90
10278;DHT22;5184;51.376;7.148;2023-01-06T09:53:35;9.90;99.90
10278;DHT22;5184;51.376;7.148;2023-01-06T09:56:02;9.80;99.90
10278;DHT22;5184;51.376;7.148;2023-01-06T09:58:31;9.80;99.90
10278;DHT22;5184;51.376;7.148;2023-01-06T10:00:57;9.80;99.90
10278;DHT22;5184;51.376;7.148;2023-01-06T10:03:24;9.80;99.90
10278;DHT22;5184;51.376;7.148;2023-01-06T10:06:01;9.80;99.90
10278;DHT22;5184;51.376;7.148;2023-01-06T10:08:46;9.90;99.90
10278;DHT22;5184;51.376;7.148;2023-01-06T10:11:18;9.90;99.90
10278;DHT22;5184;51.376;7.148;2023-01-06T10:16:35;9.90;99.90
10278;DHT22;5184;51.376;7.148;2023-01-06T10:19:16;9.90;99.90
10278;DHT22;5184;51.376;7.148;2023-01-06T10:21:44;10.00;99.90
10278;DHT22;5184;51.376;7.148;2023-01-06T10:24:15;10.00;99.90
10278;DHT22;5184;51.376;7.148;2023-01-06T10:26:43;10.00;99.90
10278;DHT22;5184;51.376;7.148;2023-01-06T10:29:14;10.10;99.90
10278;DHT22;5184;51.376;7.148;2023-01-06T10:31:39;10.00;99.90
10278;DHT22;5184;51.376;7.148;2023-01-06T10:34:09;10.10;99.90
10278;DHT22;5184;51.376;7.148;2023-01-06T10:36:38;10.10;99.90
10278;DHT22;5184;51.376;7.148;2023-01-06T10:39:03;12.40;99.90
10278;DHT22;5184;51.376;7.148;2023-01-06T10:41:42;10.10;99.90
10278;DHT22;5184;51.376;7.148;2023-01-06T10:44:06;10.10;99.90
10278;DHT22;5184;51.376;7.148;2023-01-06T10:46:33;10.10;99.90
10278;DHT22;5184;51.376;7.148;2023-01-06T10:48:59;10.10;99.90
10278;DHT22;5184;51.376;7.148;2023-01-06T10:51:31;10.10;99.90
10278;DHT22;5184;51.376;7.148;2023-01-06T10:53:56;10.20;99.90
10278;DHT22;5184;51.376;7.148;2023-01-06T10:56:23;10.20;99.90
10278;DHT22;5184;51.376;7.148;2023-01-06T10:58:54;10.30;99.90
10278;DHT22;5184;51.376;7.148;2023-01-06T11:01:22;10.30;99.90
10278;DHT22;5184;51.376;7.148;2023-01-06T11:04:10;10.40;20.60
10278;DHT22;5184;51.376;7.148;2023-01-06T11:06:42;10.40;16.00
10278;DHT22;5184;51.376;7.148;2023-01-06T11:09:05;10.40;15.90
10278;DHT22;5184;51.376;7.148;2023-01-06T11:11:32;10.40;27.10
10278;DHT22;5184;51.376;7.148;2023-01-06T11:13:59;10.40;78.00
10278;DHT22;5184;51.376;7.148;2023-01-06T11:16:33;10.40;99.90
10278;DHT22;5184;51.376;7.148;2023-01-06T11:19:00;9.60;88.60
10278;DHT22;5184;51.376;7.148;2023-01-06T11:21:39;10.30;93.70
10278;DHT22;5184;51.376;7.148;2023-01-06T11:24:12;10.40;87.90
10278;DHT22;5184;51.376;7.148;2023-01-06T11:26:42;8.30;86.50
10278;DHT22;5184;51.376;7.148;2023-01-06T11:29:02;10.40;99.90
10278;DHT22;5184;51.376;7.148;2023-01-06T11:31:28;10.40;99.90
10278;DHT22;5184;51.376;7.148;2023-01-06T11:33:58;10.40;99.90
10278;DHT22;5184;51.376;7.148;2023-01-06T11:36:25;10.40;44.10
10278;DHT22;5184;51.376;7.148;2023-01-06T11:39:02;10.50;1.00
10278;DHT22;5184;51.376;7.148;2023-01-06T11:41:31;10.50;1.00
10278;DHT22;5184;51.376;7.148;2023-01-06T11:46:39;10.60;1.00
10278;DHT22;5184;51.376;7.148;2023-01-06T11:49:08;10.60;1.00
10278;DHT22;5184;51.376;7.148;2023-01-06T11:51:46;10.60;1.00
10278;DHT22;5184;51.376;7.148;2023-01-06T11:54:35;10.60;1.00
10278;DHT22;5184;51.376;7.148;2023-01-06T11:57:12;10.70;1.00
10278;DHT22;5184;51.376;7.148;2023-01-06T11:59:43;10.80;1.00
10278;DHT22;5184;51.376;7.148;2023-01-06T12:02:06;10.80;1.00
10278;DHT22;5184;51.376;7.148;2023-01-06T12:04:34;10.90;99.90
10278;DHT22;5184;51.376;7.148;2023-01-06T12:07:02;10.90;99.90
10278;DHT22;5184;51.376;7.148;2023-01-06T12:09:29;11.00;95.70
10278;DHT22;5184;51.376;7.148;2023-01-06T12:11:56;11.10;99.90
10278;DHT22;5184;51.376;7.148;2023-01-06T12:14:23;11.10;99.90
10278;DHT22;5184;51.376;7.148;2023-01-06T12:17:11;11.10;1.00
10278;DHT22;5184;51.376;7.148;2023-01-06T12:19:51;11.20;1.00
10278;DHT22;5184;51.376;7.148;2023-01-06T12:22:21;11.10;99.90
10278;DHT22;5184;51.376;7.148;2023-01-06T12:24:46;11.10;99.90
10278;DHT22;5184;51.376;7.148;2023-01-06T12:27:13;11.10;99.90
10278;DHT22;5184;51.376;7.148;2023-01-06T12:29:40;11.10;1.00
10278;DHT22;5184;51.376;7.148;2023-01-06T12:32:07;11.10;1.00
10278;DHT22;5184;51.376;7.148;2023-01-06T12:34:36;11.10;99.90
10278;DHT22;5184;51.376;7.148;2023-01-06T12:37:26;11.20;1.00
10278;DHT22;5184;51.376;7.148;2023-01-06T12:40:00;11.20;1.00
10278;DHT22;5184;51.376;7.148;2023-01-06T12:42:34;11.20;99.90
10278;DHT22;5184;51.376;7.148;2023-01-06T12:45:03;11.20;99.90
10278;DHT22;5184;51.376;7.148;2023-01-06T12:47:33;11.20;1.00
10278;DHT22;5184;51.376;7.148;2023-01-06T12:50:06;11.40;99.90
10278;DHT22;5184;51.376;7.148;2023-01-06T12:52:34;11.50;1.00
10278;DHT22;5184;51.376;7.148;2023-01-06T12:54:59;11.50;1.00
10278;DHT22;5184;51.376;7.148;2023-01-06T12:57:43;11.60;99.90
10278;DHT22;5184;51.376;7.148;2023-01-06T13:00:31;11.60;99.90
10278;DHT22;5184;51.376;7.148;2023-01-06T13:03:03;11.60;70.00
10278;DHT22;5184;51.376;7.148;2023-01-06T13:05:46;11.60;1.00
10278;DHT22;5184;51.376;7.148;2023-01-06T13:10:46;11.50;99.90
10278;DHT22;5184;51.376;7.148;2023-01-06T13:13:36;11.50;99.90
10278;DHT22;5184;51.376;7.148;2023-01-06T13:16:07;11.50;1.00
10278;DHT22;5184;51.376;7.148;2023-01-06T13:18:33;11.50;99.90
10278;DHT22;5184;51.376;7.148;2023-01-06T13:21:01;11.50;1.00
10278;DHT22;5184;51.376;7.148;2023-01-06T13:26:39;11.60;99.90
10278;DHT22;5184;51.376;7.148;2023-01-06T13:29:21;11.50;99.90
10278;DHT22;5184;51.376;7.148;2023-01-06T13:35:12;11.30;99.90
10278;DHT22;5184;51.376;7.148;2023-01-06T13:37:59;11.30;99.90
10278;DHT22;5184;51.376;7.148;2023-01-06T13:40:09;11.30;99.90
10278;DHT22;5184;51.376;7.148;2023-01-06T13:42:45;11.20;1.00
10278;DHT22;5184;51.376;7.148;2023-01-06T13:45:13;11.50;1.00
10278;DHT22;5184;51.376;7.148;2023-01-06T13:47:38;11.20;99.90
10278;DHT22;5184;51.376;7.148;2023-01-06T13:50:06;11.30;99.90
10278;DHT22;5184;51.376;7.148;2023-01-06T13:52:32;11.20;99.90
10278;DHT22;5184;51.376;7.148;2023-01-06T13:55:02;11.20;1.00
10278;DHT22;5184;51.376;7.148;2023-01-06T13:57:32;11.20;72.70
10278;DHT22;5184;51.376;7.148;2023-01-06T14:00:15;11.20;1.00
10278;DHT22;5184;51.376;7.148;2023-01-06T14:03:00;11.10;99.90
10278;DHT22;5184;51.376;7.148;2023-01-06T14:05:49;11.10;99.90
10278;DHT22;5184;51.376;7.148;2023-01-06T14:08:16;11.10;99.90
10278;DHT22;5184;51.376;7.148;2023-01-06T14:10:43;11.00;1.00
10278;DHT22;5184;51.376;7.148;2023-01-06T14:13:18;11.10;80.00
10278;DHT22;5184;51.376;7.148;2023-01-06T14:15:50;11.00;90.10
10278;DHT22;5184;51.376;7.148;2023-01-06T14:18:26;11.10;99.90
10278;DHT22;5184;51.376;7.148;2023-01-06T14:20:36;11.00;99.90
10278;DHT22;5184;51.376;7.148;2023-01-06T14:23:05;10.90;1.00
10278;DHT22;5184;51.376;7.148;2023-01-06T14:25:35;10.80;1.00
10278;DHT22;5184;51.376;7.148;2023-01-06T14:28:21;10.80;1.00
10278;DHT22;5184;51.376;7.148;2023-01-06T14:30:34;10.80;1.00
10278;DHT22;5184;51.376;7.148;2023-01-06T14:33:20;10.80;1.00
10278;DHT22;5184;51.376;7.148;2023-01-06T14:35:37;10.70;74.90
10278;DHT22;5184;51.376;7.148;2023-01-06T14:38:04;10.70;99.90
10278;DHT22;5184;51.376;7.148;2023-01-06T14:40:32;10.70;99.90
10278;DHT22;5184;51.376;7.148;2023-01-06T14:42:59;10.70;99.90
10278;DHT22;5184;51.376;7.148;2023-01-06T14:45:27;10.70;56.30
10278;DHT22;5184;51.376;7.148;2023-01-06T14:47:55;10.70;51.80
10278;DHT22;5184;51.376;7.148;2023-01-06T14:50:24;10.80;27.80
10278;DHT22;5184;51.376;7.148;2023-01-06T14:52:53;10.80;27.60
10278;DHT22;5184;51.376;7.148;2023-01-06T14:55:17;10.80;1.00
10278;DHT22;5184;51.376;7.148;2023-01-06T14:57:43;10.80;1.00
10278;DHT22;5184;51.376;7.148;2023-01-06T15:00:15;10.80;1.00
10278;DHT22;5184;51.376;7.148;2023-01-06T15:02:44;10.80;1.00
10278;DHT22;5184;51.376;7.148;2023-01-06T15:05:21;10.70;1.00
10278;DHT22;5184;51.376;7.148;2023-01-06T15:08:05;11.60;1.00
10278;DHT22;5184;51.376;7.148;2023-01-06T15:10:32;10.70;1.00
10278;DHT22;5184;51.376;7.148;2023-01-06T15:12:58;10.70;1.00
10278;DHT22;5184;51.376;7.148;2023-01-06T15:15:25;10.70;1.00
10278;DHT22;5184;51.376;7.148;2023-01-06T15:17:52;10.70;1.00
10278;DHT22;5184;51.376;7.148;2023-01-06T15:20:26;10.60;1.00
10278;DHT22;5184;51.376;7.148;2023-01-06T15:22:47;10.60;1.00
10278;DHT22;5184;51.376;7.148;2023-01-06T15:25:19;10.70;2.20
10278;DHT22;5184;51.376;7.148;2023-01-06T15:27:45;10.60;2.40
10278;DHT22;5184;51.376;7.148;2023-01-06T15:30:14;10.70;1.00
10278;DHT22;5184;51.376;7.148;2023-01-06T15:32:40;10.60;22.20
10278;DHT22;5184;51.376;7.148;2023-01-06T15:35:08;10.70;8.90
10278;DHT22;5184;51.376;7.148;2023-01-06T15:37:34;10.60;9.20
10278;DHT22;5184;51.376;7.148;2023-01-06T15:40:02;10.70;1.00
10278;DHT22;5184;51.376;7.148;2023-01-06T15:42:27;10.60;1.00
10278;DHT22;5184;51.376;7.148;2023-01-06T15:44:57;10.60;1.00
10278;DHT22;5184;51.376;7.148;2023-01-06T15:47:28;10.60;51.00
10278;DHT22;5184;51.376;7.148;2023-01-06T15:49:54;10.50;99.90
10278;DHT22;5184;51.376;7.148;2023-01-06T15:52:23;10.40;99.90
10278;DHT22;5184;51.376;7.148;2023-01-06T15:54:49;10.40;99.90
10278;DHT22;5184;51.376;7.148;2023-01-06T15:57:16;10.30;99.90
10278;DHT22;5184;51.376;7.148;2023-01-06T15:59:52;10.30;99.90
10278;DHT22;5184;51.376;7.148;2023-01-06T16:02:18;10.30;99.90
10278;DHT22;5184;51.376;7.148;2023-01-06T16:04:45;10.20;99.90
10278;DHT22;5184;51.376;7.148;2023-01-06T16:07:20;10.20;99.90
10278;DHT22;5184;51.376;7.148;2023-01-06T16:09:46;10.20;99.90
10278;DHT22;5184;51.376;7.148;2023-01-06T16:12:15;10.20;99.90
10278;DHT22;5184;51.376;7.148;2023-01-06T16:14:41;10.20;99.90
10278;DHT22;5184;51.376;7.148;2023-01-06T16:17:28;10.20;99.90
10278;DHT22;5184;51.376;7.148;2023-01-06T16:19:57;10.20;99.90
10278;DHT22;5184;51.376;7.148;2023-01-06T16:22:47;10.20;99.90
10278;DHT22;5184;51.376;7.148;2023-01-06T16:25:21;10.10;99.90
10278;DHT22;5184;51.376;7.148;2023-01-06T16:27:47;10.10;99.90
10278;DHT22;5184;51.376;7.148;2023-01-06T16:30:31;10.10;99.90
10278;DHT22;5184;51.376;7.148;2023-01-06T16:32:57;10.00;99.90
10278;DHT22;5184;51.376;7.148;2023-01-06T16:35:28;10.00;99.90
10278;DHT22;5184;51.376;7.148;2023-01-06T16:37:54;10.00;99.90